sensor_id;sensor_type;location;lat;lon;timestamp;pressure;altitude;pressure_sealevel;temperature;humidity
24486;BME280;13449;49.374;8.584;2023-05-17T00:02:08;100945.38;;;8.66;65.10
24486;BME280;13449;49.374;8.584;2023-05-17T00:04:39;100948.00;;;8.66;65.69
24486;BME280;13449;49.374;8.584;2023-05-17T00:07:06;100950.91;;;8.61;65.73
24486;BME280;13449;49.374;8.584;2023-05-17T00:09:33;100948.47;;;8.58;65.89
24486;BME280;13449;49.374;8.584;2023-05-17T00:12:00;100951.31;;;8.55;66.11
24486;BME280;13449;49.374;8.584;2023-05-17T00:14:26;100956.75;;;8.52;66.34
24486;BME280;13449;49.374;8.584;2023-05-17T00:16:53;100952.34;;;8.53;66.42
24486;BME280;13449;49.374;8.584;2023-05-17T00:19:19;100947.09;;;8.53;66.68
24486;BME280;13449;49.374;8.584;2023-05-17T00:21:46;100950.91;;;8.47;66.25
24486;BME280;13449;49.374;8.584;2023-05-17T00:24:13;100962.63;;;8.42;66.69
24486;BME280;13449;49.374;8.584;2023-05-17T00:26:39;100963.47;;;8.42;66.75
24486;BME280;13449;49.374;8.584;2023-05-17T00:29:05;100956.72;;;8.38;67.16
24486;BME280;13449;49.374;8.584;2023-05-17T00:31:32;100967.44;;;8.33;68.16
24486;BME280;13449;49.374;8.584;2023-05-17T00:33:59;100966.03;;;8.28;67.44
24486;BME280;13449;49.374;8.584;2023-05-17T00:36:25;100966.97;;;8.27;67.80
24486;BME280;13449;49.374;8.584;2023-05-17T00:38:52;100970.72;;;8.23;67.47
24486;BME280;13449;49.374;8.584;2023-05-17T00:41:18;100965.56;;;8.21;67.63
24486;BME280;13449;49.374;8.584;2023-05-17T00:43:45;100970.03;;;8.19;67.56
24486;BME280;13449;49.374;8.584;2023-05-17T00:46:12;100967.34;;;8.21;67.80
24486;BME280;13449;49.374;8.584;2023-05-17T00:48:39;100974.34;;;8.20;68.07
24486;BME280;13449;49.374;8.584;2023-05-17T00:51:06;100971.25;;;8.14;67.89
24486;BME280;13449;49.374;8.584;2023-05-17T00:53:35;100979.13;;;8.14;68.94
24486;BME280;13449;49.374;8.584;2023-05-17T00:56:03;100977.00;;;8.04;68.06
24486;BME280;13449;49.374;8.584;2023-05-17T00:58:30;100969.41;;;8.00;68.62
24486;BME280;13449;49.374;8.584;2023-05-17T01:00:58;100980.94;;;7.97;69.24
24486;BME280;13449;49.374;8.584;2023-05-17T01:03:24;100981.31;;;7.91;69.63
24486;BME280;13449;49.374;8.584;2023-05-17T01:05:51;100986.88;;;7.85;70.09
24486;BME280;13449;49.374;8.584;2023-05-17T01:08:17;100994.84;;;7.84;70.49
24486;BME280;13449;49.374;8.584;2023-05-17T01:14:23;100989.09;;;7.77;69.81
24486;BME280;13449;49.374;8.584;2023-05-17T01:16:58;100991.72;;;7.77;70.46
24486;BME280;13449;49.374;8.584;2023-05-17T01:19:51;100998.00;;;7.74;70.40
24486;BME280;13449;49.374;8.584;2023-05-17T01:25:06;101003.31;;;7.73;70.98
24486;BME280;13449;49.374;8.584;2023-05-17T01:27:38;101001.59;;;7.72;70.24
24486;BME280;13449;49.374;8.584;2023-05-17T01:30:09;101010.25;;;7.74;70.43
24486;BME280;13449;49.374;8.584;2023-05-17T01:32:40;101017.34;;;7.72;71.20
24486;BME280;13449;49.374;8.584;2023-05-17T01:35:10;101019.28;;;7.68;71.46
24486;BME280;13449;49.374;8.584;2023-05-17T01:37:38;101011.59;;;7.65;71.28
24486;BME280;13449;49.374;8.584;2023-05-17T01:40:06;101019.91;;;7.58;71.47
24486;BME280;13449;49.374;8.584;2023-05-17T01:42:37;101023.59;;;7.54;71.23
24486;BME280;13449;49.374;8.584;2023-05-17T01:45:17;101030.72;;;7.51;72.19
24486;BME280;13449;49.374;8.584;2023-05-17T01:50:31;101032.94;;;7.43;72.77
24486;BME280;13449;49.374;8.584;2023-05-17T01:53:07;101030.44;;;7.40;73.05
24486;BME280;13449;49.374;8.584;2023-05-17T01:55:46;101035.94;;;7.36;73.52
24486;BME280;13449;49.374;8.584;2023-05-17T01:58:19;101038.81;;;7.31;74.05
24486;BME280;13449;49.374;8.584;2023-05-17T02:00:53;101041.63;;;7.28;72.93
24486;BME280;13449;49.374;8.584;2023-05-17T02:03:24;101046.94;;;7.27;73.39
24486;BME280;13449;49.374;8.584;2023-05-17T02:05:52;101045.41;;;7.22;73.22
24486;BME280;13449;49.374;8.584;2023-05-17T02:08:19;101052.66;;;7.17;74.66
24486;BME280;13449;49.374;8.584;2023-05-17T02:10:46;101047.69;;;7.13;74.35
24486;BME280;13449;49.374;8.584;2023-05-17T02:13:12;101054.69;;;7.12;75.41
24486;BME280;13449;49.374;8.584;2023-05-17T02:15:39;101053.06;;;7.10;74.60
24486;BME280;13449;49.374;8.584;2023-05-17T02:18:05;101061.78;;;7.10;74.38
24486;BME280;13449;49.374;8.584;2023-05-17T02:20:32;101060.69;;;7.14;73.63
24486;BME280;13449;49.374;8.584;2023-05-17T02:22:59;101058.91;;;7.15;73.45
24486;BME280;13449;49.374;8.584;2023-05-17T02:25:26;101056.22;;;7.16;73.87
24486;BME280;13449;49.374;8.584;2023-05-17T02:27:53;101053.75;;;7.13;73.83
24486;BME280;13449;49.374;8.584;2023-05-17T02:30:19;101047.06;;;7.08;74.38
24486;BME280;13449;49.374;8.584;2023-05-17T02:32:47;101049.59;;;7.09;74.25
24486;BME280;13449;49.374;8.584;2023-05-17T02:35:14;101055.66;;;7.10;74.48
24486;BME280;13449;49.374;8.584;2023-05-17T02:37:41;101055.00;;;7.06;73.96
24486;BME280;13449;49.374;8.584;2023-05-17T02:40:10;101064.63;;;7.06;74.79
24486;BME280;13449;49.374;8.584;2023-05-17T02:42:37;101071.72;;;7.04;75.84
24486;BME280;13449;49.374;8.584;2023-05-17T02:45:03;101068.19;;;7.05;75.17
24486;BME280;13449;49.374;8.584;2023-05-17T02:47:32;101062.94;;;7.05;74.74
24486;BME280;13449;49.374;8.584;2023-05-17T02:49:59;101053.31;;;7.05;74.49
24486;BME280;13449;49.374;8.584;2023-05-17T02:52:25;101064.63;;;7.06;75.29
24486;BME280;13449;49.374;8.584;2023-05-17T02:54:53;101054.16;;;7.06;74.78
24486;BME280;13449;49.374;8.584;2023-05-17T02:57:20;101061.06;;;7.07;74.47
24486;BME280;13449;49.374;8.584;2023-05-17T02:59:46;101062.94;;;7.05;75.50
24486;BME280;13449;49.374;8.584;2023-05-17T03:02:13;101066.47;;;7.04;75.45
24486;BME280;13449;49.374;8.584;2023-05-17T03:04:39;101067.31;;;7.04;74.83
24486;BME280;13449;49.374;8.584;2023-05-17T03:07:11;101065.47;;;7.06;75.67
24486;BME280;13449;49.374;8.584;2023-05-17T03:09:38;101066.31;;;7.07;74.99
24486;BME280;13449;49.374;8.584;2023-05-17T03:12:05;101072.66;;;7.03;76.62
24486;BME280;13449;49.374;8.584;2023-05-17T03:14:31;101076.19;;;7.02;75.52
24486;BME280;13449;49.374;8.584;2023-05-17T03:16:58;101078.97;;;6.99;75.72
24486;BME280;13449;49.374;8.584;2023-05-17T03:19:24;101084.53;;;6.93;77.58
24486;BME280;13449;49.374;8.584;2023-05-17T03:21:51;101076.91;;;6.88;77.02
24486;BME280;13449;49.374;8.584;2023-05-17T03:24:17;101073.53;;;6.86;76.23
24486;BME280;13449;49.374;8.584;2023-05-17T03:26:44;101086.16;;;6.78;78.31
24486;BME280;13449;49.374;8.584;2023-05-17T03:29:10;101092.47;;;6.74;77.82
24486;BME280;13449;49.374;8.584;2023-05-17T03:31:37;101087.31;;;6.72;78.26
24486;BME280;13449;49.374;8.584;2023-05-17T03:34:04;101084.09;;;6.67;77.44
24486;BME280;13449;49.374;8.584;2023-05-17T03:36:33;101087.63;;;6.66;76.95
24486;BME280;13449;49.374;8.584;2023-05-17T03:39:00;101097.94;;;6.69;77.38
24486;BME280;13449;49.374;8.584;2023-05-17T03:41:29;101086.38;;;6.73;76.67
24486;BME280;13449;49.374;8.584;2023-05-17T03:43:57;101087.00;;;6.78;76.44
24486;BME280;13449;49.374;8.584;2023-05-17T03:46:23;101097.41;;;6.80;76.25
24486;BME280;13449;49.374;8.584;2023-05-17T03:48:50;101097.19;;;6.84;75.64
24486;BME280;13449;49.374;8.584;2023-05-17T03:51:17;101095.31;;;6.86;76.77
24486;BME280;13449;49.374;8.584;2023-05-17T03:53:46;101096.84;;;6.90;76.30
24486;BME280;13449;49.374;8.584;2023-05-17T03:56:13;101102.09;;;6.90;76.26
24486;BME280;13449;49.374;8.584;2023-05-17T03:58:41;101105.34;;;6.96;76.87
24486;BME280;13449;49.374;8.584;2023-05-17T04:01:08;101105.19;;;6.99;75.63
24486;BME280;13449;49.374;8.584;2023-05-17T04:03:35;101106.19;;;6.96;75.32
24486;BME280;13449;49.374;8.584;2023-05-17T04:06:03;101108.72;;;6.98;75.29
24486;BME280;13449;49.374;8.584;2023-05-17T04:08:34;101119.03;;;7.01;75.95
24486;BME280;13449;49.374;8.584;2023-05-17T04:11:01;101120.66;;;7.03;75.96
24486;BME280;13449;49.374;8.584;2023-05-17T04:13:35;101116.94;;;7.07;75.87
24486;BME280;13449;49.374;8.584;2023-05-17T04:16:03;101124.03;;;7.05;75.83
24486;BME280;13449;49.374;8.584;2023-05-17T04:18:32;101135.44;;;7.04;76.72
24486;BME280;13449;49.374;8.584;2023-05-17T04:21:00;101128.41;;;7.05;75.47
24486;BME280;13449;49.374;8.584;2023-05-17T04:23:26;101125.63;;;7.08;76.29
24486;BME280;13449;49.374;8.584;2023-05-17T04:25:53;101124.78;;;7.07;75.98
24486;BME280;13449;49.374;8.584;2023-05-17T04:28:23;101138.59;;;7.11;75.82
24486;BME280;13449;49.374;8.584;2023-05-17T04:30:52;101134.97;;;7.13;75.52
24486;BME280;13449;49.374;8.584;2023-05-17T04:33:19;101142.75;;;7.15;76.17
24486;BME280;13449;49.374;8.584;2023-05-17T04:35:46;101143.59;;;7.15;75.63
24486;BME280;13449;49.374;8.584;2023-05-17T04:38:12;101148.34;;;7.25;75.97
24486;BME280;13449;49.374;8.584;2023-05-17T04:40:39;101144.75;;;7.27;75.67
24486;BME280;13449;49.374;8.584;2023-05-17T04:43:09;101144.34;;;7.35;74.70
24486;BME280;13449;49.374;8.584;2023-05-17T04:45:36;101151.19;;;7.37;75.07
24486;BME280;13449;49.374;8.584;2023-05-17T04:48:03;101151.00;;;7.40;75.09
24486;BME280;13449;49.374;8.584;2023-05-17T04:50:30;101149.88;;;7.46;74.49
24486;BME280;13449;49.374;8.584;2023-05-17T04:52:56;101149.38;;;7.55;75.31
24486;BME280;13449;49.374;8.584;2023-05-17T04:55:23;101149.66;;;7.66;74.81
24486;BME280;13449;49.374;8.584;2023-05-17T04:57:49;101152.53;;;7.77;74.31
24486;BME280;13449;49.374;8.584;2023-05-17T05:00:18;101161.69;;;7.86;74.22
24486;BME280;13449;49.374;8.584;2023-05-17T05:02:48;101162.22;;;7.93;74.43
24486;BME280;13449;49.374;8.584;2023-05-17T05:05:17;101155.41;;;8.04;74.25
24486;BME280;13449;49.374;8.584;2023-05-17T05:07:45;101161.69;;;8.18;73.32
24486;BME280;13449;49.374;8.584;2023-05-17T05:10:11;101159.31;;;8.29;73.19
24486;BME280;13449;49.374;8.584;2023-05-17T05:12:37;101163.25;;;8.37;72.61
24486;BME280;13449;49.374;8.584;2023-05-17T05:15:04;101163.56;;;8.47;72.27
24486;BME280;13449;49.374;8.584;2023-05-17T05:17:35;101165.88;;;8.53;71.90
24486;BME280;13449;49.374;8.584;2023-05-17T05:20:06;101169.63;;;8.63;71.82
24486;BME280;13449;49.374;8.584;2023-05-17T05:22:33;101169.13;;;8.73;71.36
24486;BME280;13449;49.374;8.584;2023-05-17T05:25:03;101182.50;;;8.84;71.01
24486;BME280;13449;49.374;8.584;2023-05-17T05:27:30;101178.56;;;8.91;71.30
24486;BME280;13449;49.374;8.584;2023-05-17T05:29:57;101179.72;;;9.01;70.11
24486;BME280;13449;49.374;8.584;2023-05-17T05:32:23;101184.22;;;9.13;70.39
24486;BME280;13449;49.374;8.584;2023-05-17T05:34:50;101187.28;;;9.21;70.85
24486;BME280;13449;49.374;8.584;2023-05-17T05:37:17;101189.63;;;9.26;70.15
24486;BME280;13449;49.374;8.584;2023-05-17T05:39:45;101177.41;;;9.25;69.65
24486;BME280;13449;49.374;8.584;2023-05-17T05:42:11;101186.91;;;9.27;69.31
24486;BME280;13449;49.374;8.584;2023-05-17T05:44:38;101190.38;;;9.42;70.12
24486;BME280;13449;49.374;8.584;2023-05-17T05:47:07;101192.19;;;9.42;69.32
24486;BME280;13449;49.374;8.584;2023-05-17T05:49:33;101184.47;;;9.39;69.10
24486;BME280;13449;49.374;8.584;2023-05-17T05:52:00;101187.22;;;9.51;69.30
24486;BME280;13449;49.374;8.584;2023-05-17T05:54:28;101185.16;;;9.56;68.71
24486;BME280;13449;49.374;8.584;2023-05-17T05:56:55;101192.84;;;9.59;68.57
24486;BME280;13449;49.374;8.584;2023-05-17T05:59:21;101198.69;;;9.79;68.06
24486;BME280;13449;49.374;8.584;2023-05-17T06:01:48;101188.22;;;9.91;67.21
24486;BME280;13449;49.374;8.584;2023-05-17T06:04:15;101191.59;;;9.94;66.90
24486;BME280;13449;49.374;8.584;2023-05-17T06:06:41;101190.84;;;10.06;67.46
24486;BME280;13449;49.374;8.584;2023-05-17T06:09:08;101188.38;;;10.17;65.75
24486;BME280;13449;49.374;8.584;2023-05-17T06:11:37;101187.28;;;10.21;66.47
24486;BME280;13449;49.374;8.584;2023-05-17T06:14:04;101194.59;;;10.57;67.21
24486;BME280;13449;49.374;8.584;2023-05-17T06:16:31;101192.28;;;10.53;63.73
24486;BME280;13449;49.374;8.584;2023-05-17T06:18:59;101194.91;;;10.79;64.93
24486;BME280;13449;49.374;8.584;2023-05-17T06:21:26;101197.78;;;10.89;63.54
24486;BME280;13449;49.374;8.584;2023-05-17T06:23:52;101201.28;;;11.02;63.64
24486;BME280;13449;49.374;8.584;2023-05-17T06:26:20;101196.94;;;11.01;63.11
24486;BME280;13449;49.374;8.584;2023-05-17T06:28:46;101198.03;;;11.12;63.01
24486;BME280;13449;49.374;8.584;2023-05-17T06:31:13;101196.22;;;10.99;62.45
24486;BME280;13449;49.374;8.584;2023-05-17T06:33:39;101196.56;;;11.07;62.74
24486;BME280;13449;49.374;8.584;2023-05-17T06:36:06;101193.72;;;11.36;63.05
24486;BME280;13449;49.374;8.584;2023-05-17T06:38:33;101197.84;;;11.40;61.91
24486;BME280;13449;49.374;8.584;2023-05-17T06:41:00;101198.25;;;11.34;62.48
24486;BME280;13449;49.374;8.584;2023-05-17T06:43:26;101202.31;;;11.52;61.24
24486;BME280;13449;49.374;8.584;2023-05-17T06:45:53;101201.03;;;11.45;61.56
24486;BME280;13449;49.374;8.584;2023-05-17T06:48:22;101198.78;;;11.64;61.39
24486;BME280;13449;49.374;8.584;2023-05-17T06:50:49;101205.13;;;11.75;61.58
24486;BME280;13449;49.374;8.584;2023-05-17T06:53:16;101216.84;;;11.83;62.07
24486;BME280;13449;49.374;8.584;2023-05-17T06:55:42;101196.47;;;11.98;61.09
24486;BME280;13449;49.374;8.584;2023-05-17T06:58:11;101206.88;;;12.12;61.08
24486;BME280;13449;49.374;8.584;2023-05-17T07:00:38;101205.50;;;12.19;60.83
24486;BME280;13449;49.374;8.584;2023-05-17T07:03:05;101200.97;;;12.21;59.93
24486;BME280;13449;49.374;8.584;2023-05-17T07:05:31;101202.88;;;12.19;60.08
24486;BME280;13449;49.374;8.584;2023-05-17T07:07:58;101201.66;;;12.36;60.27
24486;BME280;13449;49.374;8.584;2023-05-17T07:10:25;101206.19;;;12.47;59.74
24486;BME280;13449;49.374;8.584;2023-05-17T07:12:52;101200.59;;;12.39;60.58
24486;BME280;13449;49.374;8.584;2023-05-17T07:15:18;101195.69;;;12.45;59.49
24486;BME280;13449;49.374;8.584;2023-05-17T07:17:46;101198.78;;;12.39;58.16
24486;BME280;13449;49.374;8.584;2023-05-17T07:20:15;101201.66;;;12.60;59.16
24486;BME280;13449;49.374;8.584;2023-05-17T07:22:42;101205.66;;;12.66;59.35
24486;BME280;13449;49.374;8.584;2023-05-17T07:25:11;101210.53;;;12.59;58.66
24486;BME280;13449;49.374;8.584;2023-05-17T07:27:40;101211.47;;;12.47;59.02
24486;BME280;13449;49.374;8.584;2023-05-17T07:30:07;101204.25;;;12.49;58.37
24486;BME280;13449;49.374;8.584;2023-05-17T07:32:34;101212.19;;;12.49;58.47
24486;BME280;13449;49.374;8.584;2023-05-17T07:35:01;101212.84;;;12.40;58.46
24486;BME280;13449;49.374;8.584;2023-05-17T07:37:28;101207.34;;;12.67;58.01
24486;BME280;13449;49.374;8.584;2023-05-17T07:39:56;101210.38;;;12.73;58.31
24486;BME280;13449;49.374;8.584;2023-05-17T07:42:22;101205.22;;;12.72;56.32
24486;BME280;13449;49.374;8.584;2023-05-17T07:44:48;101197.38;;;12.70;57.01
24486;BME280;13449;49.374;8.584;2023-05-17T07:47:15;101202.69;;;12.70;57.30
24486;BME280;13449;49.374;8.584;2023-05-17T07:49:42;101199.66;;;12.64;55.59
24486;BME280;13449;49.374;8.584;2023-05-17T07:52:08;101205.38;;;12.81;57.07
24486;BME280;13449;49.374;8.584;2023-05-17T07:54:35;101196.81;;;12.78;56.61
24486;BME280;13449;49.374;8.584;2023-05-17T07:57:04;101204.00;;;13.00;55.79
24486;BME280;13449;49.374;8.584;2023-05-17T07:59:30;101196.78;;;13.02;55.60
24486;BME280;13449;49.374;8.584;2023-05-17T08:01:58;101198.34;;;13.04;55.27
24486;BME280;13449;49.374;8.584;2023-05-17T08:04:24;101212.34;;;13.41;58.27
24486;BME280;13449;49.374;8.584;2023-05-17T08:06:51;101198.13;;;13.54;54.86
24486;BME280;13449;49.374;8.584;2023-05-17T08:09:18;101207.09;;;13.75;56.79
24486;BME280;13449;49.374;8.584;2023-05-17T08:11:47;101198.13;;;13.31;55.30
24486;BME280;13449;49.374;8.584;2023-05-17T08:14:17;101198.59;;;13.01;55.73
24486;BME280;13449;49.374;8.584;2023-05-17T08:16:45;101194.03;;;13.38;55.41
24486;BME280;13449;49.374;8.584;2023-05-17T08:19:13;101195.03;;;13.71;54.65
24486;BME280;13449;49.374;8.584;2023-05-17T08:21:43;101191.19;;;13.75;54.05
24486;BME280;13449;49.374;8.584;2023-05-17T08:24:11;101195.00;;;14.16;54.51
24486;BME280;13449;49.374;8.584;2023-05-17T08:26:39;101177.41;;;14.26;52.60
24486;BME280;13449;49.374;8.584;2023-05-17T08:29:07;101180.06;;;14.26;52.04
24486;BME280;13449;49.374;8.584;2023-05-17T08:31:34;101194.28;;;14.25;53.22
24486;BME280;13449;49.374;8.584;2023-05-17T08:34:00;101181.06;;;13.91;51.70
24486;BME280;13449;49.374;8.584;2023-05-17T08:36:28;101184.69;;;13.79;52.18
24486;BME280;13449;49.374;8.584;2023-05-17T08:38:55;101185.63;;;13.67;52.68
24486;BME280;13449;49.374;8.584;2023-05-17T08:41:22;101186.50;;;13.78;53.01
24486;BME280;13449;49.374;8.584;2023-05-17T08:43:49;101179.25;;;13.81;53.40
24486;BME280;13449;49.374;8.584;2023-05-17T08:46:18;101178.19;;;13.61;52.81
24486;BME280;13449;49.374;8.584;2023-05-17T08:48:48;101187.31;;;13.57;53.03
24486;BME280;13449;49.374;8.584;2023-05-17T08:51:16;101182.03;;;13.68;52.75
24486;BME280;13449;49.374;8.584;2023-05-17T08:53:42;101179.03;;;13.61;52.69
24486;BME280;13449;49.374;8.584;2023-05-17T08:56:15;101184.66;;;13.57;52.66
24486;BME280;13449;49.374;8.584;2023-05-17T08:58:42;101182.53;;;13.73;53.02
24486;BME280;13449;49.374;8.584;2023-05-17T09:01:23;101176.13;;;13.98;53.33
24486;BME280;13449;49.374;8.584;2023-05-17T09:03:52;101180.81;;;13.94;52.94
24486;BME280;13449;49.374;8.584;2023-05-17T09:06:22;101168.31;;;13.96;51.99
24486;BME280;13449;49.374;8.584;2023-05-17T09:08:50;101170.81;;;14.20;51.89
24486;BME280;13449;49.374;8.584;2023-05-17T09:11:28;101177.69;;;14.12;52.71
24486;BME280;13449;49.374;8.584;2023-05-17T09:14:05;101176.72;;;14.01;52.56
24486;BME280;13449;49.374;8.584;2023-05-17T09:16:36;101165.78;;;13.84;50.83
24486;BME280;13449;49.374;8.584;2023-05-17T09:19:06;101177.69;;;14.12;51.87
24486;BME280;13449;49.374;8.584;2023-05-17T09:21:38;101164.88;;;14.28;51.18
24486;BME280;13449;49.374;8.584;2023-05-17T09:24:04;101168.31;;;13.96;50.86
24486;BME280;13449;49.374;8.584;2023-05-17T09:26:44;101166.84;;;13.70;51.33
24486;BME280;13449;49.374;8.584;2023-05-17T09:29:15;101172.03;;;13.94;52.16
24486;BME280;13449;49.374;8.584;2023-05-17T09:31:43;101167.13;;;13.89;50.46
24486;BME280;13449;49.374;8.584;2023-05-17T09:34:10;101168.06;;;13.88;50.71
24486;BME280;13449;49.374;8.584;2023-05-17T09:36:37;101173.59;;;14.07;50.00
24486;BME280;13449;49.374;8.584;2023-05-17T09:39:07;101162.41;;;13.82;48.52
24486;BME280;13449;49.374;8.584;2023-05-17T09:41:42;101174.44;;;13.97;49.29
24486;BME280;13449;49.374;8.584;2023-05-17T09:44:11;101171.66;;;13.87;49.14
24486;BME280;13449;49.374;8.584;2023-05-17T09:46:43;101170.81;;;13.98;49.81
24486;BME280;13449;49.374;8.584;2023-05-17T09:49:10;101166.03;;;13.92;50.48
24486;BME280;13449;49.374;8.584;2023-05-17T09:51:46;101165.66;;;13.85;48.44
24486;BME280;13449;49.374;8.584;2023-05-17T09:54:14;101172.53;;;13.76;49.23
24486;BME280;13449;49.374;8.584;2023-05-17T09:56:43;101175.91;;;13.78;48.93
24486;BME280;13449;49.374;8.584;2023-05-17T09:59:14;101179.84;;;13.51;49.56
24486;BME280;13449;49.374;8.584;2023-05-17T10:01:43;101174.31;;;13.65;49.71
24486;BME280;13449;49.374;8.584;2023-05-17T10:04:11;101176.63;;;13.58;49.19
24486;BME280;13449;49.374;8.584;2023-05-17T10:06:39;101176.00;;;13.66;49.90
24486;BME280;13449;49.374;8.584;2023-05-17T10:09:15;101178.78;;;13.98;50.24
24486;BME280;13449;49.374;8.584;2023-05-17T10:11:45;101179.84;;;14.06;50.29
24486;BME280;13449;49.374;8.584;2023-05-17T10:14:18;101177.81;;;14.10;47.92
24486;BME280;13449;49.374;8.584;2023-05-17T10:16:50;101176.09;;;14.20;48.94
24486;BME280;13449;49.374;8.584;2023-05-17T10:19:19;101173.47;;;14.20;49.23
24486;BME280;13449;49.374;8.584;2023-05-17T10:21:47;101169.25;;;14.06;48.20
24486;BME280;13449;49.374;8.584;2023-05-17T10:24:15;101165.66;;;13.85;48.49
24486;BME280;13449;49.374;8.584;2023-05-17T10:26:45;101174.78;;;14.03;49.06
24486;BME280;13449;49.374;8.584;2023-05-17T10:29:15;101168.53;;;14.04;47.48
24486;BME280;13449;49.374;8.584;2023-05-17T10:31:42;101163.25;;;13.93;47.94
24486;BME280;13449;49.374;8.584;2023-05-17T10:34:14;101154.34;;;13.94;47.77
24486;BME280;13449;49.374;8.584;2023-05-17T10:36:45;101165.13;;;14.14;47.36
24486;BME280;13449;49.374;8.584;2023-05-17T10:39:12;101167.50;;;14.39;47.60
24486;BME280;13449;49.374;8.584;2023-05-17T10:41:43;101164.59;;;14.42;47.74
24486;BME280;13449;49.374;8.584;2023-05-17T10:44:13;101169.66;;;14.34;48.22
24486;BME280;13449;49.374;8.584;2023-05-17T10:46:50;101165.38;;;14.22;47.42
24486;BME280;13449;49.374;8.584;2023-05-17T10:49:16;101182.34;;;14.30;49.14
24486;BME280;13449;49.374;8.584;2023-05-17T10:51:50;101172.56;;;14.53;48.37
24486;BME280;13449;49.374;8.584;2023-05-17T10:54:17;101162.28;;;14.60;46.68
24486;BME280;13449;49.374;8.584;2023-05-17T10:56:48;101169.44;;;14.37;46.28
24486;BME280;13449;49.374;8.584;2023-05-17T10:59:23;101163.56;;;14.22;47.45
24486;BME280;13449;49.374;8.584;2023-05-17T11:04:41;101177.41;;;14.37;48.84
24486;BME280;13449;49.374;8.584;2023-05-17T11:14:59;101165.81;;;14.38;46.44
24486;BME280;13449;49.374;8.584;2023-05-17T11:17:27;101163.53;;;14.45;47.04
24486;BME280;13449;49.374;8.584;2023-05-17T11:20:06;101168.50;;;14.70;46.73
24486;BME280;13449;49.374;8.584;2023-05-17T11:22:47;101168.56;;;14.48;47.37
24486;BME280;13449;49.374;8.584;2023-05-17T11:25:20;101168.13;;;14.75;46.70
24486;BME280;13449;49.374;8.584;2023-05-17T11:27:50;101160.72;;;14.57;47.27
24486;BME280;13449;49.374;8.584;2023-05-17T11:30:30;101153.38;;;14.50;46.45
24486;BME280;13449;49.374;8.584;2023-05-17T11:32:58;101155.47;;;14.67;45.80
24486;BME280;13449;49.374;8.584;2023-05-17T11:35:37;101161.84;;;14.76;46.09
24486;BME280;13449;49.374;8.584;2023-05-17T11:38:17;101168.00;;;14.76;46.77
24486;BME280;13449;49.374;8.584;2023-05-17T11:40:45;101166.72;;;14.91;46.95
24486;BME280;13449;49.374;8.584;2023-05-17T11:43:14;101182.78;;;15.11;47.93
24486;BME280;13449;49.374;8.584;2023-05-17T11:45:54;101171.50;;;14.97;46.31
24486;BME280;13449;49.374;8.584;2023-05-17T11:48:28;101165.66;;;14.83;46.14
24486;BME280;13449;49.374;8.584;2023-05-17T11:50:56;101159.41;;;14.84;45.35
24486;BME280;13449;49.374;8.584;2023-05-17T11:53:29;101159.91;;;14.78;47.39
24486;BME280;13449;49.374;8.584;2023-05-17T11:56:01;101153.22;;;14.62;47.20
24486;BME280;13449;49.374;8.584;2023-05-17T11:58:31;101151.66;;;14.92;47.31
24486;BME280;13449;49.374;8.584;2023-05-17T12:00:59;101140.75;;;15.37;45.80
24486;BME280;13449;49.374;8.584;2023-05-17T12:03:27;101132.31;;;15.93;45.90
24486;BME280;13449;49.374;8.584;2023-05-17T12:06:02;101117.31;;;16.32;43.16
24486;BME280;13449;49.374;8.584;2023-05-17T12:08:30;101109.50;;;16.69;41.29
24486;BME280;13449;49.374;8.584;2023-05-17T12:10:58;101097.72;;;16.52;39.42
24486;BME280;13449;49.374;8.584;2023-05-17T12:13:32;101097.31;;;16.47;39.93
24486;BME280;13449;49.374;8.584;2023-05-17T12:16:06;101094.59;;;16.08;40.00
24486;BME280;13449;49.374;8.584;2023-05-17T12:18:36;101090.66;;;15.93;40.12
24486;BME280;13449;49.374;8.584;2023-05-17T12:21:04;101098.81;;;16.11;41.75
24486;BME280;13449;49.374;8.584;2023-05-17T12:23:33;101091.84;;;16.10;39.90
24486;BME280;13449;49.374;8.584;2023-05-17T12:26:06;101099.94;;;16.18;41.33
24486;BME280;13449;49.374;8.584;2023-05-17T12:28:41;101103.28;;;16.01;40.63
24486;BME280;13449;49.374;8.584;2023-05-17T12:31:13;101097.09;;;15.91;40.59
24486;BME280;13449;49.374;8.584;2023-05-17T12:33:43;101095.75;;;16.15;41.25
24486;BME280;13449;49.374;8.584;2023-05-17T12:36:11;101090.41;;;16.06;39.23
24486;BME280;13449;49.374;8.584;2023-05-17T12:38:42;101092.16;;;16.74;40.06
24486;BME280;13449;49.374;8.584;2023-05-17T12:41:15;101081.63;;;16.54;39.00
24486;BME280;13449;49.374;8.584;2023-05-17T12:43:44;101078.50;;;17.06;39.50
24486;BME280;13449;49.374;8.584;2023-05-17T12:46:12;101099.41;;;16.82;41.82
24486;BME280;13449;49.374;8.584;2023-05-17T12:48:40;101078.13;;;16.72;38.96
24486;BME280;13449;49.374;8.584;2023-05-17T12:51:14;101077.69;;;16.38;39.25
24486;BME280;13449;49.374;8.584;2023-05-17T12:53:47;101075.34;;;16.74;39.53
24486;BME280;13449;49.374;8.584;2023-05-17T12:56:15;101071.25;;;16.89;38.66
24486;BME280;13449;49.374;8.584;2023-05-17T12:58:42;101074.19;;;16.86;38.35
24486;BME280;13449;49.374;8.584;2023-05-17T13:01:09;101072.94;;;16.71;38.75
24486;BME280;13449;49.374;8.584;2023-05-17T13:03:39;101064.13;;;16.80;37.91
24486;BME280;13449;49.374;8.584;2023-05-17T13:06:07;101066.63;;;16.91;38.27
24486;BME280;13449;49.374;8.584;2023-05-17T13:08:35;101059.38;;;16.74;38.01
24486;BME280;13449;49.374;8.584;2023-05-17T13:11:10;101061.03;;;16.85;39.36
24486;BME280;13449;49.374;8.584;2023-05-17T13:13:39;101048.00;;;16.72;37.66
24486;BME280;13449;49.374;8.584;2023-05-17T13:16:06;101048.75;;;16.74;39.43
24486;BME280;13449;49.374;8.584;2023-05-17T13:18:46;101048.72;;;16.55;37.65
24486;BME280;13449;49.374;8.584;2023-05-17T13:21:13;101044.97;;;16.67;37.55
24486;BME280;13449;49.374;8.584;2023-05-17T13:23:48;101045.34;;;16.91;39.10